sensor_id;sensor_type;location;lat;lon;timestamp;P1;durP1;ratioP1;P2;durP2;ratioP2
33381;SDS011;21342;48.786;9.166;2022-11-15T00:02:21;4.77;;;4.27;;
33381;SDS011;21342;48.786;9.166;2022-11-15T00:04:48;5.33;;;4.53;;
33381;SDS011;21342;48.786;9.166;2022-11-15T00:07:15;6.80;;;5.13;;
33381;SDS011;21342;48.786;9.166;2022-11-15T00:09:44;5.10;;;4.60;;
33381;SDS011;21342;48.786;9.166;2022-11-15T00:12:11;5.30;;;4.60;;
33381;SDS011;21342;48.786;9.166;2022-11-15T00:14:38;6.77;;;4.80;;
33381;SDS011;21342;48.786;9.166;2022-11-15T00:17:05;6.27;;;4.90;;
33381;SDS011;21342;48.786;9.166;2022-11-15T00:19:32;5.20;;;4.70;;
33381;SDS011;21342;48.786;9.166;2022-11-15T00:22:00;7.93;;;5.13;;
33381;SDS011;21342;48.786;9.166;2022-11-15T00:24:27;5.30;;;4.73;;
33381;SDS011;21342;48.786;9.166;2022-11-15T00:26:55;4.50;;;4.10;;
33381;SDS011;21342;48.786;9.166;2022-11-15T00:29:22;5.07;;;4.23;;
33381;SDS011;21342;48.786;9.166;2022-11-15T00:31:49;4.50;;;4.10;;
33381;SDS011;21342;48.786;9.166;2022-11-15T00:34:17;5.17;;;4.30;;
33381;SDS011;21342;48.786;9.166;2022-11-15T00:36:44;5.03;;;4.17;;
33381;SDS011;21342;48.786;9.166;2022-11-15T00:39:12;4.30;;;3.90;;
33381;SDS011;21342;48.786;9.166;2022-11-15T00:41:39;4.53;;;4.13;;
33381;SDS011;21342;48.786;9.166;2022-11-15T00:44:07;5.30;;;4.80;;
33381;SDS011;21342;48.786;9.166;2022-11-15T00:46:34;11.17;;;3.70;;
33381;SDS011;21342;48.786;9.166;2022-11-15T00:49:02;3.70;;;3.30;;
33381;SDS011;21342;48.786;9.166;2022-11-15T00:51:29;3.87;;;3.57;;
33381;SDS011;21342;48.786;9.166;2022-11-15T00:53:56;3.90;;;3.50;;
33381;SDS011;21342;48.786;9.166;2022-11-15T00:56:23;3.80;;;3.50;;
33381;SDS011;21342;48.786;9.166;2022-11-15T00:58:50;4.17;;;3.53;;
33381;SDS011;21342;48.786;9.166;2022-11-15T01:01:19;4.00;;;3.70;;
33381;SDS011;21342;48.786;9.166;2022-11-15T01:03:47;4.80;;;4.23;;
33381;SDS011;21342;48.786;9.166;2022-11-15T01:06:14;4.03;;;3.57;;
33381;SDS011;21342;48.786;9.166;2022-11-15T01:08:41;4.10;;;3.73;;
33381;SDS011;21342;48.786;9.166;2022-11-15T01:11:09;4.37;;;3.53;;
33381;SDS011;21342;48.786;9.166;2022-11-15T01:13:38;6.83;;;4.97;;
33381;SDS011;21342;48.786;9.166;2022-11-15T01:16:06;5.33;;;3.70;;
33381;SDS011;21342;48.786;9.166;2022-11-15T01:18:36;4.23;;;3.83;;
33381;SDS011;21342;48.786;9.166;2022-11-15T01:21:04;5.63;;;4.20;;
33381;SDS011;21342;48.786;9.166;2022-11-15T01:23:32;3.83;;;3.53;;
33381;SDS011;21342;48.786;9.166;2022-11-15T01:26:00;3.63;;;3.33;;
33381;SDS011;21342;48.786;9.166;2022-11-15T01:28:29;4.30;;;3.73;;
33381;SDS011;21342;48.786;9.166;2022-11-15T01:30:57;4.00;;;3.60;;
33381;SDS011;21342;48.786;9.166;2022-11-15T01:33:25;4.57;;;4.17;;
33381;SDS011;21342;48.786;9.166;2022-11-15T01:35:55;4.30;;;3.93;;
33381;SDS011;21342;48.786;9.166;2022-11-15T01:38:22;5.87;;;3.90;;
33381;SDS011;21342;48.786;9.166;2022-11-15T01:40:49;3.70;;;3.40;;
33381;SDS011;21342;48.786;9.166;2022-11-15T01:43:24;4.03;;;3.57;;
33381;SDS011;21342;48.786;9.166;2022-11-15T01:45:53;4.93;;;3.53;;
33381;SDS011;21342;48.786;9.166;2022-11-15T01:48:26;4.03;;;3.67;;
33381;SDS011;21342;48.786;9.166;2022-11-15T01:50:59;5.83;;;4.10;;
33381;SDS011;21342;48.786;9.166;2022-11-15T01:53:30;4.10;;;3.80;;
33381;SDS011;21342;48.786;9.166;2022-11-15T01:56:01;5.50;;;4.60;;
33381;SDS011;21342;48.786;9.166;2022-11-15T01:58:33;11.27;;;4.60;;
33381;SDS011;21342;48.786;9.166;2022-11-15T02:01:01;4.57;;;4.27;;
33381;SDS011;21342;48.786;9.166;2022-11-15T02:03:30;5.67;;;4.30;;
33381;SDS011;21342;48.786;9.166;2022-11-15T02:06:04;4.10;;;3.70;;
33381;SDS011;21342;48.786;9.166;2022-11-15T02:08:32;4.17;;;3.87;;
33381;SDS011;21342;48.786;9.166;2022-11-15T02:10:59;5.80;;;4.10;;
33381;SDS011;21342;48.786;9.166;2022-11-15T02:13:26;5.13;;;4.60;;
33381;SDS011;21342;48.786;9.166;2022-11-15T02:15:58;4.50;;;4.10;;
33381;SDS011;21342;48.786;9.166;2022-11-15T02:18:31;4.47;;;3.90;;
33381;SDS011;21342;48.786;9.166;2022-11-15T02:21:05;4.53;;;3.67;;
33381;SDS011;21342;48.786;9.166;2022-11-15T02:24:05;4.13;;;3.73;;
33381;SDS011;21342;48.786;9.166;2022-11-15T02:30:20;4.57;;;4.13;;
33381;SDS011;21342;48.786;9.166;2022-11-15T02:32:54;3.87;;;3.57;;
33381;SDS011;21342;48.786;9.166;2022-11-15T02:35:29;7.00;;;4.40;;
33381;SDS011;21342;48.786;9.166;2022-11-15T02:38:05;6.60;;;3.80;;
33381;SDS011;21342;48.786;9.166;2022-11-15T02:40:37;6.77;;;4.10;;
33381;SDS011;21342;48.786;9.166;2022-11-15T02:43:09;4.97;;;4.47;;
33381;SDS011;21342;48.786;9.166;2022-11-15T02:45:58;6.70;;;3.90;;
33381;SDS011;21342;48.786;9.166;2022-11-15T02:48:31;4.00;;;3.60;;
33381;SDS011;21342;48.786;9.166;2022-11-15T02:50:59;4.57;;;3.60;;
33381;SDS011;21342;48.786;9.166;2022-11-15T02:53:27;7.60;;;3.73;;
33381;SDS011;21342;48.786;9.166;2022-11-15T02:55:55;4.00;;;3.53;;
33381;SDS011;21342;48.786;9.166;2022-11-15T02:58:28;4.97;;;3.70;;
33381;SDS011;21342;48.786;9.166;2022-11-15T03:01:30;4.77;;;4.23;;
33381;SDS011;21342;48.786;9.166;2022-11-15T03:04:08;4.03;;;3.73;;
33381;SDS011;21342;48.786;9.166;2022-11-15T03:06:45;4.70;;;4.23;;
33381;SDS011;21342;48.786;9.166;2022-11-15T03:09:19;9.87;;;4.80;;
33381;SDS011;21342;48.786;9.166;2022-11-15T03:11:56;3.90;;;3.50;;
33381;SDS011;21342;48.786;9.166;2022-11-15T03:14:30;4.80;;;3.93;;
33381;SDS011;21342;48.786;9.166;2022-11-15T03:17:04;4.70;;;3.70;;
33381;SDS011;21342;48.786;9.166;2022-11-15T03:19:40;3.97;;;3.57;;
33381;SDS011;21342;48.786;9.166;2022-11-15T03:22:11;6.17;;;4.07;;
33381;SDS011;21342;48.786;9.166;2022-11-15T03:24:41;4.47;;;4.07;;
33381;SDS011;21342;48.786;9.166;2022-11-15T03:27:10;4.63;;;4.23;;
33381;SDS011;21342;48.786;9.166;2022-11-15T03:29:41;4.23;;;3.73;;
33381;SDS011;21342;48.786;9.166;2022-11-15T03:32:16;3.97;;;3.67;;
33381;SDS011;21342;48.786;9.166;2022-11-15T03:34:49;5.73;;;3.70;;
33381;SDS011;21342;48.786;9.166;2022-11-15T03:37:20;3.63;;;3.33;;
33381;SDS011;21342;48.786;9.166;2022-11-15T03:39:51;4.00;;;3.40;;
33381;SDS011;21342;48.786;9.166;2022-11-15T03:42:20;5.23;;;3.20;;
33381;SDS011;21342;48.786;9.166;2022-11-15T03:44:51;4.13;;;3.73;;
33381;SDS011;21342;48.786;9.166;2022-11-15T03:47:27;4.83;;;4.03;;
33381;SDS011;21342;48.786;9.166;2022-11-15T03:49:59;4.63;;;3.23;;
33381;SDS011;21342;48.786;9.166;2022-11-15T03:52:30;4.20;;;3.60;;
33381;SDS011;21342;48.786;9.166;2022-11-15T03:55:00;10.13;;;3.93;;
33381;SDS011;21342;48.786;9.166;2022-11-15T03:57:28;4.17;;;3.73;;
33381;SDS011;21342;48.786;9.166;2022-11-15T03:59:56;3.87;;;3.47;;
33381;SDS011;21342;48.786;9.166;2022-11-15T04:02:23;3.73;;;3.37;;
33381;SDS011;21342;48.786;9.166;2022-11-15T04:04:53;6.07;;;4.27;;
33381;SDS011;21342;48.786;9.166;2022-11-15T04:07:20;4.03;;;3.73;;
33381;SDS011;21342;48.786;9.166;2022-11-15T04:09:47;6.40;;;3.70;;
33381;SDS011;21342;48.786;9.166;2022-11-15T04:12:30;4.00;;;3.40;;
33381;SDS011;21342;48.786;9.166;2022-11-15T04:14:59;4.73;;;3.70;;
33381;SDS011;21342;48.786;9.166;2022-11-15T04:17:38;5.67;;;3.77;;
33381;SDS011;21342;48.786;9.166;2022-11-15T04:20:07;6.20;;;3.60;;
33381;SDS011;21342;48.786;9.166;2022-11-15T04:22:53;3.90;;;3.60;;
33381;SDS011;21342;48.786;9.166;2022-11-15T04:25:39;5.10;;;4.60;;
33381;SDS011;21342;48.786;9.166;2022-11-15T04:28:06;5.20;;;3.60;;
33381;SDS011;21342;48.786;9.166;2022-11-15T04:30:33;3.47;;;3.17;;
33381;SDS011;21342;48.786;9.166;2022-11-15T04:33:02;4.70;;;4.30;;
33381;SDS011;21342;48.786;9.166;2022-11-15T04:35:29;4.40;;;3.70;;
33381;SDS011;21342;48.786;9.166;2022-11-15T04:37:56;5.00;;;3.37;;
33381;SDS011;21342;48.786;9.166;2022-11-15T04:40:24;5.03;;;3.50;;
33381;SDS011;21342;48.786;9.166;2022-11-15T04:42:51;3.90;;;3.60;;
33381;SDS011;21342;48.786;9.166;2022-11-15T04:45:18;5.10;;;3.43;;
33381;SDS011;21342;48.786;9.166;2022-11-15T04:47:46;4.30;;;3.53;;
33381;SDS011;21342;48.786;9.166;2022-11-15T04:50:15;5.63;;;3.50;;
33381;SDS011;21342;48.786;9.166;2022-11-15T04:52:42;4.10;;;3.80;;
33381;SDS011;21342;48.786;9.166;2022-11-15T04:55:15;4.47;;;3.33;;
33381;SDS011;21342;48.786;9.166;2022-11-15T04:57:43;4.17;;;3.27;;
33381;SDS011;21342;48.786;9.166;2022-11-15T05:00:11;4.30;;;3.90;;
33381;SDS011;21342;48.786;9.166;2022-11-15T05:02:40;3.90;;;3.20;;
33381;SDS011;21342;48.786;9.166;2022-11-15T05:05:26;4.00;;;3.53;;
33381;SDS011;21342;48.786;9.166;2022-11-15T05:07:53;3.83;;;3.43;;
33381;SDS011;21342;48.786;9.166;2022-11-15T05:10:20;4.20;;;3.80;;
33381;SDS011;21342;48.786;9.166;2022-11-15T05:12:47;5.27;;;3.30;;
33381;SDS011;21342;48.786;9.166;2022-11-15T05:15:14;4.63;;;3.30;;
33381;SDS011;21342;48.786;9.166;2022-11-15T05:17:41;3.90;;;3.30;;
33381;SDS011;21342;48.786;9.166;2022-11-15T05:20:09;4.27;;;3.40;;
33381;SDS011;21342;48.786;9.166;2022-11-15T05:22:38;5.83;;;3.30;;
33381;SDS011;21342;48.786;9.166;2022-11-15T05:25:06;3.33;;;3.03;;
33381;SDS011;21342;48.786;9.166;2022-11-15T05:27:33;4.80;;;3.80;;
33381;SDS011;21342;48.786;9.166;2022-11-15T05:30:01;5.10;;;3.60;;
33381;SDS011;21342;48.786;9.166;2022-11-15T05:32:28;4.70;;;3.73;;
33381;SDS011;21342;48.786;9.166;2022-11-15T05:34:55;3.67;;;3.37;;
33381;SDS011;21342;48.786;9.166;2022-11-15T05:37:22;4.27;;;3.87;;
33381;SDS011;21342;48.786;9.166;2022-11-15T05:39:51;4.97;;;4.10;;
33381;SDS011;21342;48.786;9.166;2022-11-15T05:42:18;3.77;;;3.47;;
33381;SDS011;21342;48.786;9.166;2022-11-15T05:44:46;4.03;;;3.70;;
33381;SDS011;21342;48.786;9.166;2022-11-15T05:47:15;5.60;;;3.60;;
33381;SDS011;21342;48.786;9.166;2022-11-15T05:49:54;4.50;;;3.87;;
33381;SDS011;21342;48.786;9.166;2022-11-15T05:52:22;5.50;;;4.60;;
33381;SDS011;21342;48.786;9.166;2022-11-15T05:54:55;5.80;;;3.50;;
33381;SDS011;21342;48.786;9.166;2022-11-15T05:57:24;4.50;;;3.63;;
33381;SDS011;21342;48.786;9.166;2022-11-15T05:59:51;3.97;;;3.67;;
33381;SDS011;21342;48.786;9.166;2022-11-15T06:02:19;8.90;;;3.73;;
33381;SDS011;21342;48.786;9.166;2022-11-15T06:04:47;4.67;;;3.50;;
33381;SDS011;21342;48.786;9.166;2022-11-15T06:07:14;6.20;;;3.30;;
33381;SDS011;21342;48.786;9.166;2022-11-15T06:09:41;4.53;;;4.07;;
33381;SDS011;21342;48.786;9.166;2022-11-15T06:12:09;6.77;;;4.00;;
33381;SDS011;21342;48.786;9.166;2022-11-15T06:14:37;3.83;;;3.50;;
33381;SDS011;21342;48.786;9.166;2022-11-15T06:17:04;5.83;;;5.00;;
33381;SDS011;21342;48.786;9.166;2022-11-15T06:19:31;5.40;;;4.40;;
33381;SDS011;21342;48.786;9.166;2022-11-15T06:21:58;4.67;;;4.10;;
33381;SDS011;21342;48.786;9.166;2022-11-15T06:24:25;6.50;;;5.67;;
33381;SDS011;21342;48.786;9.166;2022-11-15T06:26:53;6.43;;;5.80;;
33381;SDS011;21342;48.786;9.166;2022-11-15T06:29:21;9.03;;;7.10;;
33381;SDS011;21342;48.786;9.166;2022-11-15T06:31:48;11.93;;;8.17;;
33381;SDS011;21342;48.786;9.166;2022-11-15T06:34:16;11.67;;;9.00;;
33381;SDS011;21342;48.786;9.166;2022-11-15T06:36:43;10.40;;;8.30;;
33381;SDS011;21342;48.786;9.166;2022-11-15T06:39:10;8.50;;;5.60;;
33381;SDS011;21342;48.786;9.166;2022-11-15T06:41:37;8.33;;;6.03;;
33381;SDS011;21342;48.786;9.166;2022-11-15T06:44:04;8.40;;;5.87;;
33381;SDS011;21342;48.786;9.166;2022-11-15T06:49:01;5.00;;;4.57;;
33381;SDS011;21342;48.786;9.166;2022-11-15T06:51:28;8.40;;;5.33;;
33381;SDS011;21342;48.786;9.166;2022-11-15T06:53:55;5.80;;;4.60;;
33381;SDS011;21342;48.786;9.166;2022-11-15T06:56:22;5.10;;;4.60;;
33381;SDS011;21342;48.786;9.166;2022-11-15T06:58:50;5.80;;;5.10;;
33381;SDS011;21342;48.786;9.166;2022-11-15T07:01:17;5.23;;;4.73;;
33381;SDS011;21342;48.786;9.166;2022-11-15T07:03:45;5.03;;;4.30;;
33381;SDS011;21342;48.786;9.166;2022-11-15T07:06:12;4.30;;;3.57;;
33381;SDS011;21342;48.786;9.166;2022-11-15T07:08:40;5.60;;;3.97;;
33381;SDS011;21342;48.786;9.166;2022-11-15T07:11:08;9.20;;;5.60;;
33381;SDS011;21342;48.786;9.166;2022-11-15T07:13:35;5.90;;;4.17;;
33381;SDS011;21342;48.786;9.166;2022-11-15T07:16:03;4.20;;;3.80;;
33381;SDS011;21342;48.786;9.166;2022-11-15T07:18:33;5.47;;;4.37;;
33381;SDS011;21342;48.786;9.166;2022-11-15T07:21:02;8.40;;;5.10;;
33381;SDS011;21342;48.786;9.166;2022-11-15T07:23:30;5.03;;;4.63;;
33381;SDS011;21342;48.786;9.166;2022-11-15T07:25:57;8.60;;;4.03;;
33381;SDS011;21342;48.786;9.166;2022-11-15T07:28:25;6.27;;;5.23;;
33381;SDS011;21342;48.786;9.166;2022-11-15T07:30:53;7.43;;;3.70;;
33381;SDS011;21342;48.786;9.166;2022-11-15T07:33:20;4.60;;;4.20;;
33381;SDS011;21342;48.786;9.166;2022-11-15T07:35:47;5.23;;;4.73;;
33381;SDS011;21342;48.786;9.166;2022-11-15T07:38:16;9.70;;;4.40;;
33381;SDS011;21342;48.786;9.166;2022-11-15T07:40:45;4.70;;;4.27;;
33381;SDS011;21342;48.786;9.166;2022-11-15T07:43:13;5.07;;;4.10;;
33381;SDS011;21342;48.786;9.166;2022-11-15T07:45:40;7.70;;;4.50;;
33381;SDS011;21342;48.786;9.166;2022-11-15T07:48:08;5.67;;;4.30;;
33381;SDS011;21342;48.786;9.166;2022-11-15T07:50:36;4.37;;;3.97;;
33381;SDS011;21342;48.786;9.166;2022-11-15T07:53:03;5.50;;;4.00;;
33381;SDS011;21342;48.786;9.166;2022-11-15T07:55:32;5.00;;;3.90;;
33381;SDS011;21342;48.786;9.166;2022-11-15T07:58:02;6.80;;;4.10;;
33381;SDS011;21342;48.786;9.166;2022-11-15T08:00:30;7.70;;;4.33;;
33381;SDS011;21342;48.786;9.166;2022-11-15T08:03:04;4.43;;;4.07;;
33381;SDS011;21342;48.786;9.166;2022-11-15T08:05:32;7.00;;;4.07;;
33381;SDS011;21342;48.786;9.166;2022-11-15T08:08:00;4.50;;;3.80;;
33381;SDS011;21342;48.786;9.166;2022-11-15T08:10:28;3.60;;;3.30;;
33381;SDS011;21342;48.786;9.166;2022-11-15T08:12:58;4.70;;;3.80;;
33381;SDS011;21342;48.786;9.166;2022-11-15T08:15:26;4.67;;;4.27;;
33381;SDS011;21342;48.786;9.166;2022-11-15T08:17:55;5.93;;;3.87;;
33381;SDS011;21342;48.786;9.166;2022-11-15T08:20:22;6.50;;;4.07;;
33381;SDS011;21342;48.786;9.166;2022-11-15T08:22:50;3.73;;;3.40;;
33381;SDS011;21342;48.786;9.166;2022-11-15T08:25:18;4.60;;;4.20;;
33381;SDS011;21342;48.786;9.166;2022-11-15T08:27:45;5.50;;;3.90;;
33381;SDS011;21342;48.786;9.166;2022-11-15T08:30:13;4.63;;;3.97;;
33381;SDS011;21342;48.786;9.166;2022-11-15T08:32:41;4.03;;;3.47;;
33381;SDS011;21342;48.786;9.166;2022-11-15T08:35:08;8.17;;;5.33;;
33381;SDS011;21342;48.786;9.166;2022-11-15T08:37:36;4.00;;;3.60;;
33381;SDS011;21342;48.786;9.166;2022-11-15T08:40:03;5.80;;;4.33;;
33381;SDS011;21342;48.786;9.166;2022-11-15T08:42:32;4.33;;;3.93;;
33381;SDS011;21342;48.786;9.166;2022-11-15T08:44:59;5.70;;;4.47;;
33381;SDS011;21342;48.786;9.166;2022-11-15T08:47:28;12.10;;;4.50;;
33381;SDS011;21342;48.786;9.166;2022-11-15T08:49:55;10.90;;;4.00;;
33381;SDS011;21342;48.786;9.166;2022-11-15T08:52:22;6.23;;;4.93;;
33381;SDS011;21342;48.786;9.166;2022-11-15T08:54:49;4.20;;;3.80;;
33381;SDS011;21342;48.786;9.166;2022-11-15T08:57:16;6.20;;;4.23;;
33381;SDS011;21342;48.786;9.166;2022-11-15T08:59:44;9.50;;;3.57;;
33381;SDS011;21342;48.786;9.166;2022-11-15T09:02:11;6.03;;;3.87;;
33381;SDS011;21342;48.786;9.166;2022-11-15T09:04:45;5.30;;;3.43;;
33381;SDS011;21342;48.786;9.166;2022-11-15T09:07:13;4.90;;;3.70;;
33381;SDS011;21342;48.786;9.166;2022-11-15T09:09:40;5.10;;;3.70;;
33381;SDS011;21342;48.786;9.166;2022-11-15T09:12:08;7.77;;;4.20;;
33381;SDS011;21342;48.786;9.166;2022-11-15T09:14:35;3.90;;;3.60;;
33381;SDS011;21342;48.786;9.166;2022-11-15T09:17:02;5.47;;;3.40;;
33381;SDS011;21342;48.786;9.166;2022-11-15T09:19:30;6.97;;;4.10;;
33381;SDS011;21342;48.786;9.166;2022-11-15T09:21:58;12.50;;;4.87;;
33381;SDS011;21342;48.786;9.166;2022-11-15T09:24:25;5.63;;;3.90;;
33381;SDS011;21342;48.786;9.166;2022-11-15T09:26:53;7.30;;;4.77;;
33381;SDS011;21342;48.786;9.166;2022-11-15T09:29:20;7.73;;;4.67;;
33381;SDS011;21342;48.786;9.166;2022-11-15T09:31:47;10.17;;;4.37;;
33381;SDS011;21342;48.786;9.166;2022-11-15T09:34:14;4.30;;;3.73;;
33381;SDS011;21342;48.786;9.166;2022-11-15T09:36:41;6.07;;;4.23;;
33381;SDS011;21342;48.786;9.166;2022-11-15T09:39:10;9.90;;;4.60;;
33381;SDS011;21342;48.786;9.166;2022-11-15T09:41:48;10.87;;;5.00;;
33381;SDS011;21342;48.786;9.166;2022-11-15T09:44:25;7.43;;;4.87;;
33381;SDS011;21342;48.786;9.166;2022-11-15T09:47:05;7.57;;;4.53;;
33381;SDS011;21342;48.786;9.166;2022-11-15T09:49:51;6.87;;;4.13;;
33381;SDS011;21342;48.786;9.166;2022-11-15T09:52:18;6.30;;;4.33;;
33381;SDS011;21342;48.786;9.166;2022-11-15T09:54:49;5.83;;;4.60;;
33381;SDS011;21342;48.786;9.166;2022-11-15T09:57:18;6.37;;;4.33;;
33381;SDS011;21342;48.786;9.166;2022-11-15T09:59:57;6.60;;;4.50;;
33381;SDS011;21342;48.786;9.166;2022-11-15T10:02:38;8.70;;;5.57;;
33381;SDS011;21342;48.786;9.166;2022-11-15T10:05:15;6.30;;;4.27;;
33381;SDS011;21342;48.786;9.166;2022-11-15T10:07:47;5.20;;;4.50;;
33381;SDS011;21342;48.786;9.166;2022-11-15T10:10:23;13.13;;;5.10;;
33381;SDS011;21342;48.786;9.166;2022-11-15T10:12:56;5.10;;;4.60;;
33381;SDS011;21342;48.786;9.166;2022-11-15T10:15:24;10.63;;;4.70;;
33381;SDS011;21342;48.786;9.166;2022-11-15T10:18:02;7.40;;;4.40;;
33381;SDS011;21342;48.786;9.166;2022-11-15T10:20:42;7.03;;;4.43;;
33381;SDS011;21342;48.786;9.166;2022-11-15T10:23:14;6.77;;;4.60;;
33381;SDS011;21342;48.786;9.166;2022-11-15T10:25:45;8.90;;;4.33;;
33381;SDS011;21342;48.786;9.166;2022-11-15T10:28:14;4.50;;;4.10;;
33381;SDS011;21342;48.786;9.166;2022-11-15T10:30:43;3.70;;;3.00;;
33381;SDS011;21342;48.786;9.166;2022-11-15T10:33:15;9.53;;;3.40;;
33381;SDS011;21342;48.786;9.166;2022-11-15T10:36:16;7.40;;;2.90;;
33381;SDS011;21342;48.786;9.166;2022-11-15T10:38:52;6.63;;;3.30;;
33381;SDS011;21342;48.786;9.166;2022-11-15T10:41:29;4.13;;;3.30;;
33381;SDS011;21342;48.786;9.166;2022-11-15T10:44:02;3.90;;;3.23;;
33381;SDS011;21342;48.786;9.166;2022-11-15T10:47:20;8.97;;;4.53;;
33381;SDS011;21342;48.786;9.166;2022-11-15T10:49:53;6.20;;;4.87;;
33381;SDS011;21342;48.786;9.166;2022-11-15T10:52:24;6.83;;;4.27;;
33381;SDS011;21342;48.786;9.166;2022-11-15T10:54:52;7.10;;;3.50;;
33381;SDS011;21342;48.786;9.166;2022-11-15T10:57:23;4.57;;;4.17;;
33381;SDS011;21342;48.786;9.166;2022-11-15T10:59:54;6.23;;;3.97;;
33381;SDS011;21342;48.786;9.166;2022-11-15T11:02:31;8.03;;;4.00;;
33381;SDS011;21342;48.786;9.166;2022-11-15T11:05:00;4.60;;;3.93;;
33381;SDS011;21342;48.786;9.166;2022-11-15T11:07:30;6.80;;;3.70;;
33381;SDS011;21342;48.786;9.166;2022-11-15T11:10:00;5.50;;;3.70;;
33381;SDS011;21342;48.786;9.166;2022-11-15T11:12:33;8.27;;;4.07;;
33381;SDS011;21342;48.786;9.166;2022-11-15T11:15:02;6.90;;;4.30;;
33381;SDS011;21342;48.786;9.166;2022-11-15T11:17:43;4.57;;;4.17;;
33381;SDS011;21342;48.786;9.166;2022-11-15T11:20:36;5.27;;;4.10;;
33381;SDS011;21342;48.786;9.166;2022-11-15T11:23:14;5.10;;;4.60;;
33381;SDS011;21342;48.786;9.166;2022-11-15T11:25:51;5.23;;;4.60;;
33381;SDS011;21342;48.786;9.166;2022-11-15T11:28:33;4.30;;;3.83;;
33381;SDS011;21342;48.786;9.166;2022-11-15T11:31:13;6.60;;;4.57;;
33381;SDS011;21342;48.786;9.166;2022-11-15T11:33:54;6.80;;;3.97;;
33381;SDS011;21342;48.786;9.166;2022-11-15T11:36:34;5.47;;;4.03;;
33381;SDS011;21342;48.786;9.166;2022-11-15T11:39:14;9.67;;;4.67;;
33381;SDS011;21342;48.786;9.166;2022-11-15T11:41:53;4.90;;;3.47;;
33381;SDS011;21342;48.786;9.166;2022-11-15T11:44:35;10.00;;;4.13;;
33381;SDS011;21342;48.786;9.166;2022-11-15T11:47:10;5.13;;;3.43;;
33381;SDS011;21342;48.786;9.166;2022-11-15T11:49:41;3.47;;;3.13;;
33381;SDS011;21342;48.786;9.166;2022-11-15T11:52:14;5.63;;;4.30;;
33381;SDS011;21342;48.786;9.166;2022-11-15T11:54:50;8.67;;;4.43;;
33381;SDS011;21342;48.786;9.166;2022-11-15T11:57:29;8.20;;;4.57;;
33381;SDS011;21342;48.786;9.166;2022-11-15T12:00:03;7.33;;;3.20;;
33381;SDS011;21342;48.786;9.166;2022-11-15T12:02:39;4.33;;;3.77;;
33381;SDS011;21342;48.786;9.166;2022-11-15T12:05:11;5.00;;;3.50;;
33381;SDS011;21342;48.786;9.166;2022-11-15T12:07:42;4.17;;;3.73;;
33381;SDS011;21342;48.786;9.166;2022-11-15T12:10:15;9.83;;;4.03;;
33381;SDS011;21342;48.786;9.166;2022-11-15T12:12:49;8.77;;;4.07;;
33381;SDS011;21342;48.786;9.166;2022-11-15T12:15:23;6.37;;;4.00;;
33381;SDS011;21342;48.786;9.166;2022-11-15T12:17:54;6.77;;;4.63;;
33381;SDS011;21342;48.786;9.166;2022-11-15T12:20:23;6.00;;;5.40;;
33381;SDS011;21342;48.786;9.166;2022-11-15T12:22:53;6.73;;;5.10;;
33381;SDS011;21342;48.786;9.166;2022-11-15T12:25:27;14.03;;;5.97;;
33381;SDS011;21342;48.786;9.166;2022-11-15T12:27:59;10.57;;;4.97;;
33381;SDS011;21342;48.786;9.166;2022-11-15T12:30:40;5.50;;;4.10;;
33381;SDS011;21342;48.786;9.166;2022-11-15T12:33:31;8.20;;;4.50;;
33381;SDS011;21342;48.786;9.166;2022-11-15T12:36:02;6.20;;;4.30;;
33381;SDS011;21342;48.786;9.166;2022-11-15T12:41:23;8.33;;;4.87;;
33381;SDS011;21342;48.786;9.166;2022-11-15T12:43:53;5.60;;;4.77;;
33381;SDS011;21342;48.786;9.166;2022-11-15T12:46:26;6.53;;;4.77;;
33381;SDS011;21342;48.786;9.166;2022-11-15T12:49:45;7.37;;;4.87;;
33381;SDS011;21342;48.786;9.166;2022-11-15T12:52:13;6.07;;;4.87;;
33381;SDS011;21342;48.786;9.166;2022-11-15T12:55:00;7.77;;;5.13;;
33381;SDS011;21342;48.786;9.166;2022-11-15T12:57:32;6.63;;;4.70;;
33381;SDS011;21342;48.786;9.166;2022-11-15T13:03:19;5.80;;;4.50;;
33381;SDS011;21342;48.786;9.166;2022-11-15T13:08:56;10.17;;;5.30;;
33381;SDS011;21342;48.786;9.166;2022-11-15T13:20:02;7.40;;;3.90;;
33381;SDS011;21342;48.786;9.166;2022-11-15T13:22:44;8.30;;;3.60;;
33381;SDS011;21342;48.786;9.166;2022-11-15T13:28:18;5.00;;;3.53;;
33381;SDS011;21342;48.786;9.166;2022-11-15T13:30:50;4.13;;;3.37;;
33381;SDS011;21342;48.786;9.166;2022-11-15T13:33:19;4.67;;;3.03;;
33381;SDS011;21342;48.786;9.166;2022-11-15T13:35:51;4.70;;;3.57;;
33381;SDS011;21342;48.786;9.166;2022-11-15T13:38:25;5.03;;;3.73;;
33381;SDS011;21342;48.786;9.166;2022-11-15T13:40:54;4.50;;;3.33;;
33381;SDS011;21342;48.786;9.166;2022-11-15T13:43:31;8.07;;;3.60;;
33381;SDS011;21342;48.786;9.166;2022-11-15T13:46:11;5.37;;;3.87;;
33381;SDS011;21342;48.786;9.166;2022-11-15T13:48:39;4.30;;;3.53;;
33381;SDS011;21342;48.786;9.166;2022-11-15T13:51:12;5.87;;;3.87;;
33381;SDS011;21342;48.786;9.166;2022-11-15T13:53:45;7.63;;;4.17;;
33381;SDS011;21342;48.786;9.166;2022-11-15T13:56:15;5.57;;;4.00;;
33381;SDS011;21342;48.786;9.166;2022-11-15T13:58:43;4.53;;;3.50;;
33381;SDS011;21342;48.786;9.166;2022-11-15T14:01:14;4.57;;;4.00;;
33381;SDS011;21342;48.786;9.166;2022-11-15T14:03:49;5.83;;;3.20;;
33381;SDS011;21342;48.786;9.166;2022-11-15T14:06:21;4.20;;;3.20;;
33381;SDS011;21342;48.786;9.166;2022-11-15T14:09:00;4.37;;;3.37;;
33381;SDS011;21342;48.786;9.166;2022-11-15T14:11:49;4.40;;;3.70;;
33381;SDS011;21342;48.786;9.166;2022-11-15T14:14:19;4.80;;;3.30;;
33381;SDS011;21342;48.786;9.166;2022-11-15T14:16:48;6.23;;;3.90;;
33381;SDS011;21342;48.786;9.166;2022-11-15T14:19:36;7.20;;;4.07;;
33381;SDS011;21342;48.786;9.166;2022-11-15T14:22:11;7.20;;;3.70;;
33381;SDS011;21342;48.786;9.166;2022-11-15T14:24:46;4.77;;;4.00;;
33381;SDS011;21342;48.786;9.166;2022-11-15T14:27:29;7.10;;;3.90;;
33381;SDS011;21342;48.786;9.166;2022-11-15T14:29:56;4.97;;;4.17;;
33381;SDS011;21342;48.786;9.166;2022-11-15T14:32:24;5.40;;;4.53;;
33381;SDS011;21342;48.786;9.166;2022-11-15T14:34:54;4.77;;;4.37;;
33381;SDS011;21342;48.786;9.166;2022-11-15T14:37:24;5.30;;;4.80;;
33381;SDS011;21342;48.786;9.166;2022-11-15T14:39:52;8.20;;;4.63;;
33381;SDS011;21342;48.786;9.166;2022-11-15T14:42:20;5.13;;;4.63;;
33381;SDS011;21342;48.786;9.166;2022-11-15T14:44:48;9.27;;;4.40;;
33381;SDS011;21342;48.786;9.166;2022-11-15T14:47:16;5.50;;;4.33;;
33381;SDS011;21342;48.786;9.166;2022-11-15T14:49:43;11.40;;;4.80;;
33381;SDS011;21342;48.786;9.166;2022-11-15T14:54:54;7.70;;;5.37;;
33381;SDS011;21342;48.786;9.166;2022-11-15T14:57:23;6.03;;;4.90;;
33381;SDS011;21342;48.786;9.166;2022-11-15T14:59:50;8.10;;;5.13;;
33381;SDS011;21342;48.786;9.166;2022-11-15T15:02:18;8.97;;;4.73;;
33381;SDS011;21342;48.786;9.166;2022-11-15T15:04:47;7.80;;;4.70;;
33381;SDS011;21342;48.786;9.166;2022-11-15T15:07:14;6.50;;;5.40;;
33381;SDS011;21342;48.786;9.166;2022-11-15T15:09:43;10.30;;;5.47;;
33381;SDS011;21342;48.786;9.166;2022-11-15T15:12:13;8.57;;;4.70;;
33381;SDS011;21342;48.786;9.166;2022-11-15T15:14:43;7.80;;;5.07;;
33381;SDS011;21342;48.786;9.166;2022-11-15T15:17:10;7.77;;;5.17;;
33381;SDS011;21342;48.786;9.166;2022-11-15T15:19:37;5.83;;;4.27;;
33381;SDS011;21342;48.786;9.166;2022-11-15T15:22:04;5.67;;;4.03;;
33381;SDS011;21342;48.786;9.166;2022-11-15T15:24:32;6.00;;;5.40;;
33381;SDS011;21342;48.786;9.166;2022-11-15T15:27:00;9.77;;;4.83;;
33381;SDS011;21342;48.786;9.166;2022-11-15T15:29:27;7.40;;;4.57;;
33381;SDS011;21342;48.786;9.166;2022-11-15T15:31:54;5.80;;;4.50;;
33381;SDS011;21342;48.786;9.166;2022-11-15T15:34:22;6.77;;;4.70;;
33381;SDS011;21342;48.786;9.166;2022-11-15T15:36:49;5.70;;;5.20;;
33381;SDS011;21342;48.786;9.166;2022-11-15T15:39:32;5.17;;;4.57;;
33381;SDS011;21342;48.786;9.166;2022-11-15T15:42:00;12.80;;;6.27;;